Archival Weather

Chicago O'Hare International

Chicago, Illinois (KORD)

Report from: Saturday, March 18, 2023 11:51 AM CDT
Current time: Saturday, March 2, 2024 3:51 AM CST

Current weather – Weather history – Daily summaries
Weather forecast

Temperature-6.1°C (21.0°F)
Wind chill-14.1°C (6.6°F)
Dew point-14.4°C (6.1°F)
Winds 15 kts (7.7 m/s, 17.3 mph) West (280°)
Wind gusts 26 kts (13.4 m/s, 29.9 mph)
Peak wind 32 kts (16.5 m/s, 36.8 mph) West-Northwest (300°) at 16:25
Visibility10 mi. (16.1 km)
Clouds Scattered clouds 2,700 ft. (823 m)
Ceiling: Broken clouds 3,400 ft. (1,036 m)
Altimeter30.02 in.Hg (1017 mB)
Relative humidity52 %
Density altitude-2,727 ft. (-831 m)
Sea-level pressure101.8 kPa (1018 mB, 30.05 in.Hg)
Remarks Automated weather observing station with precipitation discriminator
Flight conditions Visual Meteorological Conditions
Raw dataKORD 181651Z 28015G26KT 10SM SCT027 BKN034 M06/M14 A3002 RMK AO2 PK WND 30032/1625 SLP176 VCSH T10611144
An error has occurred. This application may no longer respond until reloaded. Reload 🗙